Time;durP1;ratioP1;P1;durP2;ratioP2;P2;SDS_P1;SDS_P2;PMS_P1;PMS_P2;Temp;Humidity;BMP_temperature;BMP_pressure;BME280_temperature;BME280_humidity;BME280_pressure;Samples;Min_cycle;Max_cycle;Signal;HPM_P1;HPM_P2
2022/04/20 00:02:37;;;;;;;2.70;2.00;;;;;;;;;;6261744;28;20044;-80
2022/04/20 00:05:38;;;;;;;1.98;1.63;;;;;;;;;;6238888;28;20045;-79
2022/04/20 00:08:41;;;;;;;4.18;1.80;;;;;;;;;;6238283;28;20072;-80
2022/04/20 00:11:43;;;;;;;3.50;1.83;;;;;;;;;;6236882;28;20049;-80
2022/04/20 00:14:44;;;;;;;2.83;1.70;;;;;;;;;;6237613;28;20060;-80
2022/04/20 00:17:46;;;;;;;3.17;2.10;;;;;;;;;;6237263;28;20068;-79
2022/04/20 00:20:47;;;;;;;2.53;1.67;;;;;;;;;;6245050;28;20040;-79
2022/04/20 00:23:49;;;;;;;2.88;1.70;;;;;;;;;;6262756;28;20122;-79
2022/04/20 00:26:51;;;;;;;2.55;1.88;;;;;;;;;;6241958;28;20128;-79
2022/04/20 00:29:53;;;;;;;3.55;1.77;;;;;;;;;;6243330;28;20506;-80
2022/04/20 00:32:55;;;;;;;4.32;2.10;;;;;;;;;;6258629;28;20041;-80
2022/04/20 00:35:57;;;;;;;3.60;2.13;;;;;;;;;;6262513;28;20041;-79
2022/04/20 00:38:59;;;;;;;3.58;1.98;;;;;;;;;;6256840;28;20091;-79
2022/04/20 00:42:00;;;;;;;2.70;2.10;;;;;;;;;;6234390;28;20148;-80
2022/04/20 00:45:03;;;;;;;2.00;1.70;;;;;;;;;;6259688;28;20072;-79
2022/04/20 00:48:05;;;;;;;4.70;2.10;;;;;;;;;;6281549;28;20087;-80
2022/04/20 00:51:07;;;;;;;2.75;1.90;;;;;;;;;;6316512;28;20047;-79
2022/04/20 00:54:09;;;;;;;3.40;1.77;;;;;;;;;;6283730;28;20103;-79
2022/04/20 00:57:12;;;;;;;4.10;1.88;;;;;;;;;;6260750;28;20045;-79
2022/04/20 01:00:14;;;;;;;2.85;1.80;;;;;;;;;;6228339;28;1095716;-79
2022/04/20 01:03:20;;;;;;;3.33;2.30;;;;;;;;;;6291730;28;20065;-80
2022/04/20 01:07:09;;;;;;;3.05;1.88;;;;;;;;;;6236700;28;20087;-80
2022/04/20 01:10:40;;;;;;;5.53;2.20;;;;;;;;;;6290767;28;20067;-79
2022/04/20 01:14:01;;;;;;;2.58;1.92;;;;;;;;;;6269914;28;20037;-79
2022/04/20 01:17:14;;;;;;;;;;;;;;;;;;6277043;28;20056;-79
2022/04/20 01:20:39;;;;;;;6.78;1.98;;;;;;;;;;6269290;28;19989;-79
2022/04/20 01:23:46;;;;;;;3.20;2.17;;;;;;;;;;6272338;28;20048;-79
2022/04/20 01:27:08;;;;;;;6.53;1.88;;;;;;;;;;6270278;28;20045;-78
2022/04/20 01:30:38;;;;;;;3.28;1.83;;;;;;;;;;6272935;28;20494;-79
2022/04/20 01:33:51;;;;;;;3.13;2.05;;;;;;;;;;6277330;28;20046;-80
2022/04/20 01:36:53;;;;;;;3.75;2.28;;;;;;;;;;6299385;28;20540;-78
2022/04/20 01:39:55;;;;;;;3.50;2.00;;;;;;;;;;6282635;28;20051;-79
2022/04/20 01:42:57;;;;;;;3.03;2.20;;;;;;;;;;6287658;28;20048;-79
2022/04/20 01:45:59;;;;;;;3.13;2.22;;;;;;;;;;6293847;28;20057;-79
2022/04/20 01:49:26;;;;;;;4.38;2.65;;;;;;;;;;6263497;28;20052;-80
2022/04/20 01:52:54;;;;;;;2.80;2.00;;;;;;;;;;6279714;28;20068;-79
2022/04/20 01:56:34;;;;;;;6.53;2.58;;;;;;;;;;6280342;28;20067;-79
2022/04/20 01:59:56;;;;;;;3.47;2.35;;;;;;;;;;6298136;28;20048;-79
2022/04/20 02:03:14;;;;;;;4.18;2.13;;;;;;;;;;6265854;28;20056;-79
2022/04/20 02:06:20;;;;;;;3.40;1.77;;;;;;;;;;6264646;28;20218;-79
2022/04/20 02:09:42;;;;;;;2.95;1.92;;;;;;;;;;6282287;28;20056;-79
2022/04/20 02:12:49;;;;;;;4.43;1.90;;;;;;;;;;6286640;28;20489;-80
2022/04/20 02:16:05;;;;;;;2.58;1.95;;;;;;;;;;6279693;28;20139;-78
2022/04/20 02:19:25;;;;;;;4.65;2.30;;;;;;;;;;6264363;28;20041;-78
2022/04/20 02:22:32;;;;;;;3.70;2.13;;;;;;;;;;6262389;28;20055;-79
2022/04/20 02:25:34;;;;;;;3.75;1.73;;;;;;;;;;6262478;28;20363;-79
2022/04/20 02:28:35;;;;;;;3.63;2.10;;;;;;;;;;6277627;28;20045;-79
2022/04/20 02:31:40;;;;;;;2.90;2.13;;;;;;;;;;6262260;28;20056;-80
2022/04/20 02:34:42;;;;;;;3.95;1.77;;;;;;;;;;6264157;28;20067;-79
2022/04/20 02:37:44;;;;;;;3.65;2.00;;;;;;;;;;6264477;28;20094;-80
2022/04/20 02:40:49;;;;;;;3.72;2.10;;;;;;;;;;6284566;28;20063;-80
2022/04/20 02:43:50;;;;;;;4.88;2.40;;;;;;;;;;6272243;28;20117;-80
2022/04/20 02:46:52;;;;;;;4.45;2.20;;;;;;;;;;6281629;28;20639;-80
2022/04/20 02:49:54;;;;;;;4.20;2.22;;;;;;;;;;6265241;28;20044;-80
2022/04/20 02:52:56;;;;;;;4.25;2.38;;;;;;;;;;6298950;28;20053;-80
2022/04/20 02:55:58;;;;;;;3.33;2.30;;;;;;;;;;6299085;28;20033;-80
2022/04/20 02:59:00;;;;;;;7.78;2.03;;;;;;;;;;6267397;28;20052;-80
2022/04/20 03:02:06;;;;;;;3.13;2.15;;;;;;;;;;6271250;28;20123;-80
2022/04/20 03:05:08;;;;;;;3.97;2.13;;;;;;;;;;6280881;28;20045;-79
2022/04/20 03:08:10;;;;;;;2.90;1.98;;;;;;;;;;6264327;28;20041;-78
2022/04/20 03:11:12;;;;;;;4.93;2.03;;;;;;;;;;6279920;28;20044;-80
2022/04/20 03:14:18;;;;;;;3.22;2.13;;;;;;;;;;6260441;28;20045;-79
2022/04/20 03:17:22;;;;;;;3.90;2.28;;;;;;;;;;6260038;28;20050;-79
2022/04/20 03:20:24;;;;;;;3.40;2.28;;;;;;;;;;6236297;28;20054;-79
2022/04/20 03:23:26;;;;;;;2.90;2.13;;;;;;;;;;6253191;28;20045;-80
2022/04/20 03:26:32;;;;;;;2.92;1.95;;;;;;;;;;6273419;28;20502;-80
2022/04/20 03:29:45;;;;;;;3.90;2.20;;;;;;;;;;6283445;28;20044;-79
2022/04/20 03:32:46;;;;;;;3.90;2.10;;;;;;;;;;6277969;28;20183;-79
2022/04/20 03:35:48;;;;;;;5.43;2.55;;;;;;;;;;6277724;28;20519;-78
2022/04/20 03:38:50;;;;;;;4.40;2.30;;;;;;;;;;6261357;28;20056;-79
2022/04/20 03:41:52;;;;;;;4.85;2.13;;;;;;;;;;6276130;28;20548;-79
2022/04/20 03:44:54;;;;;;;3.60;2.25;;;;;;;;;;6304253;28;20040;-79
2022/04/20 03:47:56;;;;;;;4.07;2.33;;;;;;;;;;6284932;28;20123;-78
2022/04/20 03:50:59;;;;;;;5.05;2.03;;;;;;;;;;6287649;28;20145;-79
2022/04/20 03:54:00;;;;;;;4.50;2.83;;;;;;;;;;6240842;28;20127;-79
2022/04/20 03:57:10;;;;;;;8.82;3.78;;;;;;;;;;6256984;28;20401;-79
2022/04/20 04:00:20;;;;;;;6.43;3.47;;;;;;;;;;6277095;28;20059;-79
2022/04/20 04:03:27;;;;;;;6.05;3.05;;;;;;;;;;6274669;28;20148;-79
2022/04/20 04:06:33;;;;;;;6.35;3.30;;;;;;;;;;6275127;28;20094;-79
2022/04/20 04:09:36;;;;;;;4.07;2.60;;;;;;;;;;6283160;28;20790;-80
2022/04/20 04:12:37;;;;;;;5.05;2.40;;;;;;;;;;6278753;28;20036;-79
2022/04/20 04:15:39;;;;;;;3.70;2.25;;;;;;;;;;6257405;28;20048;-80
2022/04/20 04:18:43;;;;;;;3.78;2.70;;;;;;;;;;6261470;28;20055;-79
2022/04/20 04:21:46;;;;;;;3.72;2.38;;;;;;;;;;6234592;28;20045;-79
2022/04/20 04:24:49;;;;;;;4.22;2.65;;;;;;;;;;6255374;28;20131;-77
2022/04/20 04:27:52;;;;;;;5.70;2.47;;;;;;;;;;6257603;28;20049;-78
2022/04/20 04:30:57;;;;;;;3.80;2.60;;;;;;;;;;6285835;27;20390;-78
2022/04/20 04:33:59;;;;;;;4.97;2.65;;;;;;;;;;6257343;28;20118;-78
2022/04/20 04:37:01;;;;;;;4.53;2.95;;;;;;;;;;6275167;28;20043;-78
2022/04/20 04:40:03;;;;;;;5.68;3.30;;;;;;;;;;6271474;28;20044;-77
2022/04/20 04:43:05;;;;;;;9.63;3.05;;;;;;;;;;6297740;28;20040;-77
2022/04/20 04:49:47;;;;;;;4.80;2.83;;;;;;;;;;6261130;28;20041;-78
2022/04/20 04:52:49;;;;;;;4.80;2.53;;;;;;;;;;6258538;28;20048;-76
2022/04/20 04:55:52;;;;;;;4.20;2.47;;;;;;;;;;6262747;28;20045;-78
2022/04/20 04:58:56;;;;;;;4.47;2.75;;;;;;;;;;6251811;28;20046;-77
2022/04/20 05:01:59;;;;;;;;;;;;;;;;;;6258674;28;20760;-78
2022/04/20 05:05:01;;;;;;;4.93;2.83;;;;;;;;;;6275156;28;20470;-78
2022/04/20 05:08:05;;;;;;;5.55;2.33;;;;;;;;;;6258316;28;20044;-78
2022/04/20 05:11:07;;;;;;;5.53;2.95;;;;;;;;;;6257920;28;20116;-78
2022/04/20 05:14:09;;;;;;;4.93;2.72;;;;;;;;;;6258729;28;20053;-77
2022/04/20 05:17:14;;;;;;;3.80;2.35;;;;;;;;;;6259471;28;20056;-78
2022/04/20 05:20:16;;;;;;;4.32;2.70;;;;;;;;;;6242447;28;20041;-80
2022/04/20 05:23:18;;;;;;;3.83;2.50;;;;;;;;;;6257802;28;20045;-78
2022/04/20 05:26:20;;;;;;;4.53;2.60;;;;;;;;;;6256414;28;20041;-77
2022/04/20 05:29:22;;;;;;;3.63;2.60;;;;;;;;;;6259381;28;20167;-77
2022/04/20 05:32:33;;;;;;;5.32;2.97;;;;;;;;;;6247801;28;20072;-79
2022/04/20 05:35:40;;;;;;;4.97;2.78;;;;;;;;;;6254605;28;20144;-78
2022/04/20 05:42:06;;;;;;;4.68;3.00;;;;;;;;;;6281535;28;20049;-77
2022/04/20 05:45:10;;;;;;;4.60;2.83;;;;;;;;;;6284605;28;20044;-76
2022/04/20 05:48:14;;;;;;;5.28;3.10;;;;;;;;;;6301652;28;20048;-76
2022/04/20 05:51:16;;;;;;;4.05;2.72;;;;;;;;;;6286109;28;20681;-78
2022/04/20 05:54:18;;;;;;;5.95;3.17;;;;;;;;;;6272843;28;20036;-77
2022/04/20 05:57:20;;;;;;;4.90;3.10;;;;;;;;;;6277319;28;20041;-79
2022/04/20 06:00:25;;;;;;;5.15;2.80;;;;;;;;;;6259653;28;20716;-79
2022/04/20 06:03:49;;;;;;;5.18;3.22;;;;;;;;;;6266573;28;20045;-78
2022/04/20 06:07:04;;;;;;;5.47;3.63;;;;;;;;;;6279880;28;20056;-77
2022/04/20 06:10:10;;;;;;;6.18;3.55;;;;;;;;;;6285505;28;20059;-78
2022/04/20 06:13:28;;;;;;;7.68;3.42;;;;;;;;;;6286638;28;20055;-78
2022/04/20 06:16:41;;;;;;;5.70;3.40;;;;;;;;;;6273365;28;20041;-77
2022/04/20 06:19:45;;;;;;;5.13;3.40;;;;;;;;;;6276630;28;20045;-77
2022/04/20 06:22:58;;;;;;;6.80;3.60;;;;;;;;;;6278957;28;20750;-78
2022/04/20 06:26:02;;;;;;;6.22;3.53;;;;;;;;;;6261997;28;20041;-77
2022/04/20 06:29:22;;;;;;;7.63;3.28;;;;;;;;;;6263883;28;20045;-76
2022/04/20 06:32:41;;;;;;;7.07;3.50;;;;;;;;;;6294260;28;20413;-77
2022/04/20 06:35:51;;;;;;;6.47;3.25;;;;;;;;;;6264470;28;20048;-77
2022/04/20 06:39:13;;;;;;;4.90;3.10;;;;;;;;;;6294554;28;20064;-76
2022/04/20 06:42:34;;;;;;;5.63;3.08;;;;;;;;;;6279735;28;20037;-76
2022/04/20 06:45:54;;;;;;;4.93;3.00;;;;;;;;;;6270175;28;20139;-76
2022/04/20 06:49:31;;;;;;;6.25;3.22;;;;;;;;;;6269931;28;20131;-77
2022/04/20 06:59:13;;;;;;;3.90;2.72;;;;;;;;;;6253265;28;20041;-76
2022/04/20 07:02:34;;;;;;;8.68;3.00;;;;;;;;;;6251071;28;20065;-77
2022/04/20 07:06:14;;;;;;;4.90;2.63;;;;;;;;;;6258943;28;20136;-77
2022/04/20 07:09:28;;;;;;;4.55;2.92;;;;;;;;;;6242971;28;20132;-77
2022/04/20 07:12:41;;;;;;;6.30;3.15;;;;;;;;;;6247135;28;20410;-77
2022/04/20 07:15:44;;;;;;;4.47;2.60;;;;;;;;;;6262136;28;20045;-78
2022/04/20 07:18:46;;;;;;;5.10;2.75;;;;;;;;;;6313993;28;20047;-78
2022/04/20 07:22:14;;;;;;;5.78;2.80;;;;;;;;;;6280717;28;20044;-75
2022/04/20 07:25:36;;;;;;;4.72;2.85;;;;;;;;;;6273843;28;20048;-77
2022/04/20 07:28:56;;;;;;;3.28;2.60;;;;;;;;;;6264235;28;20049;-76
2022/04/20 07:31:58;;;;;;;4.60;2.38;;;;;;;;;;6260560;28;20687;-79
2022/04/20 07:35:06;;;;;;;3.13;2.72;;;;;;;;;;6260298;28;20060;-77
2022/04/20 07:38:27;;;;;;;3.63;2.10;;;;;;;;;;6235454;28;20037;-76
2022/04/20 07:41:55;;;;;;;4.18;2.00;;;;;;;;;;6232285;28;20049;-75
2022/04/20 07:45:09;;;;;;;4.30;2.00;;;;;;;;;;6273070;28;20041;-77
2022/04/20 07:48:33;;;;;;;3.35;2.08;;;;;;;;;;6247663;28;20045;-78
2022/04/20 07:51:55;;;;;;;3.85;2.03;;;;;;;;;;6260078;28;20040;-78
2022/04/20 07:55:21;;;;;;;2.90;1.80;;;;;;;;;;6264609;28;20048;-78
2022/04/20 07:58:28;;;;;;;2.53;2.00;;;;;;;;;;6276776;28;20386;-77
2022/04/20 08:01:38;;;;;;;2.17;1.70;;;;;;;;;;6284305;28;20413;-78
2022/04/20 08:05:01;;;;;;;3.60;2.30;;;;;;;;;;6284138;28;20036;-78
2022/04/20 08:08:04;;;;;;;3.10;2.00;;;;;;;;;;6316550;28;20056;-79
2022/04/20 08:11:05;;;;;;;4.47;2.03;;;;;;;;;;6278163;28;20431;-79
2022/04/20 08:14:10;;;;;;;2.85;1.88;;;;;;;;;;6296558;28;20155;-79
2022/04/20 08:17:16;;;;;;;2.97;1.85;;;;;;;;;;6263564;28;20059;-79
2022/04/20 08:20:20;;;;;;;2.80;2.08;;;;;;;;;;6262229;28;20072;-77
2022/04/20 08:23:29;;;;;;;3.08;1.90;;;;;;;;;;6260850;28;20418;-76
2022/04/20 08:26:31;;;;;;;2.20;1.95;;;;;;;;;;6261164;28;20048;-78
2022/04/20 08:29:33;;;;;;;2.85;2.00;;;;;;;;;;6271577;28;20128;-78
2022/04/20 08:32:35;;;;;;;2.28;1.80;;;;;;;;;;6260238;28;20036;-77
2022/04/20 08:35:38;;;;;;;3.42;2.40;;;;;;;;;;6273507;28;20045;-76
2022/04/20 08:38:40;;;;;;;4.82;2.50;;;;;;;;;;6274462;28;20044;-78
2022/04/20 08:41:49;;;;;;;3.63;2.10;;;;;;;;;;6269938;28;20641;-79
2022/04/20 08:44:51;;;;;;;3.08;2.30;;;;;;;;;;6280740;27;20209;-76
2022/04/20 08:47:56;;;;;;;4.05;1.98;;;;;;;;;;6278641;27;20086;-78
2022/04/20 08:51:02;;;;;;;3.40;2.35;;;;;;;;;;6275870;28;20101;-78
2022/04/20 08:54:04;;;;;;;2.95;1.98;;;;;;;;;;6266576;28;20072;-77
2022/04/20 08:57:18;;;;;;;4.15;2.42;;;;;;;;;;6267272;28;20069;-76
2022/04/20 09:00:24;;;;;;;;;;;;;;;;;;6270897;28;20041;-76
2022/04/20 09:03:26;;;;;;;4.35;2.20;;;;;;;;;;6268206;28;20350;-77
2022/04/20 09:06:28;;;;;;;2.33;2.07;;;;;;;;;;6270892;28;20144;-78
2022/04/20 09:09:30;;;;;;;2.78;1.88;;;;;;;;;;6287965;28;20060;-78
2022/04/20 09:12:32;;;;;;;2.30;1.92;;;;;;;;;;6286445;28;20047;-77
2022/04/20 09:15:35;;;;;;;2.95;2.08;;;;;;;;;;6275828;28;20122;-77
2022/04/20 09:18:39;;;;;;;2.60;2.40;;;;;;;;;;6262330;28;20129;-77
2022/04/20 09:21:41;;;;;;;3.08;2.22;;;;;;;;;;6272373;28;20619;-77
2022/04/20 09:24:58;;;;;;;5.07;2.33;;;;;;;;;;6273269;28;20040;-77
2022/04/20 09:28:01;;;;;;;4.07;2.58;;;;;;;;;;6287497;28;20559;-75
2022/04/20 09:31:03;;;;;;;3.10;2.20;;;;;;;;;;6276847;28;20052;-76
2022/04/20 09:34:05;;;;;;;3.67;2.30;;;;;;;;;;6265235;28;20048;-77
2022/04/20 09:37:11;;;;;;;4.47;2.30;;;;;;;;;;6286491;28;20669;-78
2022/04/20 09:40:14;;;;;;;3.67;2.08;;;;;;;;;;6249174;28;20049;-76
2022/04/20 09:43:21;;;;;;;3.42;2.20;;;;;;;;;;6287965;28;20504;-77
2022/04/20 09:49:56;;;;;;;5.43;2.50;;;;;;;;;;6289708;28;20393;-77
2022/04/20 09:53:00;;;;;;;3.30;2.45;;;;;;;;;;6289466;28;20048;-77
2022/04/20 09:56:16;;;;;;;3.33;2.85;;;;;;;;;;6270846;28;20056;-77
2022/04/20 09:59:17;;;;;;;3.92;2.97;;;;;;;;;;6264736;28;20109;-77
2022/04/20 10:02:19;;;;;;;4.22;2.92;;;;;;;;;;6265101;28;20623;-77
2022/04/20 10:05:23;;;;;;;4.28;3.00;;;;;;;;;;6266099;28;20095;-77
2022/04/20 10:08:26;;;;;;;3.45;3.10;;;;;;;;;;6266632;28;20041;-78
2022/04/20 10:11:30;;;;;;;4.00;2.72;;;;;;;;;;6264423;28;20095;-77
2022/04/20 10:17:56;;;;;;;4.20;3.00;;;;;;;;;;6265371;28;20274;-80
2022/04/20 10:21:00;;;;;;;4.10;2.97;;;;;;;;;;6259751;28;20041;-76
2022/04/20 10:24:05;;;;;;;3.33;2.42;;;;;;;;;;6261449;28;20558;-76
2022/04/20 10:27:18;;;;;;;3.85;2.80;;;;;;;;;;6237427;28;20045;-77
2022/04/20 10:30:43;;;;;;;3.60;2.75;;;;;;;;;;6261739;28;20168;-77
2022/04/20 10:33:45;;;;;;;4.82;2.80;;;;;;;;;;6266163;28;20632;-78
2022/04/20 10:37:25;;;;;;;6.95;2.40;;;;;;;;;;6268475;28;20395;-76
2022/04/20 10:41:05;;;;;;;3.03;2.70;;;;;;;;;;6280651;28;20505;-76
2022/04/20 10:44:07;;;;;;;4.35;2.70;;;;;;;;;;6277380;28;20056;-77
2022/04/20 10:47:10;;;;;;;5.35;2.63;;;;;;;;;;6264366;28;20805;-77
2022/04/20 10:50:20;;;;;;;3.55;2.60;;;;;;;;;;6263514;28;20056;-76
2022/04/20 10:53:22;;;;;;;3.83;2.97;;;;;;;;;;6262660;28;20041;-77
2022/04/20 10:56:25;;;;;;;3.08;2.38;;;;;;;;;;6277698;28;20451;-76
2022/04/20 10:59:30;;;;;;;4.38;2.42;;;;;;;;;;6264383;28;20048;-78
2022/04/20 11:02:47;;;;;;;3.53;2.35;;;;;;;;;;6263299;28;20130;-78
2022/04/20 11:05:55;;;;;;;3.05;2.25;;;;;;;;;;6267464;28;20473;-78
2022/04/20 11:09:00;;;;;;;3.78;2.30;;;;;;;;;;6261811;28;20119;-78
2022/04/20 11:19:07;;;;;;;3.50;2.50;;;;;;;;;;6250920;28;20163;-77
2022/04/20 11:22:29;;;;;;;2.47;2.20;;;;;;;;;;6262063;28;20502;-78
2022/04/20 11:25:31;;;;;;;3.75;2.20;;;;;;;;;;6260517;28;20122;-78
2022/04/20 11:28:39;;;;;;;3.78;2.58;;;;;;;;;;6260112;28;20090;-78
2022/04/20 11:31:45;;;;;;;2.53;2.00;;;;;;;;;;6267325;28;20068;-78
2022/04/20 11:34:47;;;;;;;3.72;2.13;;;;;;;;;;6260012;28;20310;-79
2022/04/20 11:37:57;;;;;;;2.90;2.40;;;;;;;;;;6260366;28;20520;-78
2022/04/20 11:40:59;;;;;;;5.13;2.20;;;;;;;;;;6265109;28;20075;-78
2022/04/20 11:44:02;;;;;;;4.30;2.78;;;;;;;;;;6286555;28;20048;-79
2022/04/20 11:47:08;;;;;;;3.85;2.72;;;;;;;;;;6282624;28;20973;-78
2022/04/20 11:50:10;;;;;;;3.08;2.33;;;;;;;;;;6284068;28;20111;-79
2022/04/20 11:53:33;;;;;;;2.63;2.42;;;;;;;;;;6283636;28;20052;-80
2022/04/20 11:56:51;;;;;;;3.97;2.15;;;;;;;;;;6281780;28;20044;-79
2022/04/20 11:59:52;;;;;;;3.03;2.55;;;;;;;;;;6283969;28;20126;-78
2022/04/20 12:02:54;;;;;;;3.75;2.30;;;;;;;;;;6259529;28;20056;-77
2022/04/20 12:06:04;;;;;;;5.88;2.28;;;;;;;;;;6259737;28;20102;-76
2022/04/20 12:09:06;;;;;;;3.13;2.40;;;;;;;;;;6261228;28;20705;-79
2022/04/20 12:12:12;;;;;;;4.27;2.40;;;;;;;;;;6234549;28;20085;-79
2022/04/20 12:15:20;;;;;;;9.25;2.40;;;;;;;;;;6253147;28;20052;-78
2022/04/20 12:18:22;;;;;;;3.15;2.80;;;;;;;;;;6263301;28;20040;-81
2022/04/20 12:21:44;;;;;;;4.47;2.60;;;;;;;;;;6261451;28;20065;-77
2022/04/20 12:25:07;;;;;;;4.25;2.30;;;;;;;;;;6258623;28;20128;-75
2022/04/20 12:28:35;;;;;;;4.75;2.30;;;;;;;;;;6260122;28;20555;-82
2022/04/20 12:31:31;;;;;;;2.40;2.20;;;;;;;;;;6248619;28;20053;-79
2022/04/20 12:34:33;;;;;;;3.28;2.22;;;;;;;;;;6238136;28;20045;-78
2022/04/20 12:37:41;;;;;;;4.82;2.42;;;;;;;;;;6236784;28;20033;-79
2022/04/20 12:40:53;;;;;;;2.78;2.40;;;;;;;;;;6257902;28;20041;-80
2022/04/20 12:43:54;;;;;;;4.30;2.28;;;;;;;;;;6263382;28;20095;-77
2022/04/20 12:46:57;;;;;;;3.17;2.73;;;;;;;;;;6274215;28;20430;-79
2022/04/20 12:49:59;;;;;;;2.67;2.42;;;;;;;;;;6263384;28;20529;-80
2022/04/20 12:53:01;;;;;;;3.13;2.60;;;;;;;;;;6288608;28;20041;-81
2022/04/20 13:03:09;;;;;;;5.07;2.70;;;;;;;;;;6239592;28;20057;-76
2022/04/20 13:06:12;;;;;;;4.63;2.50;;;;;;;;;;6249247;28;20514;-79
2022/04/20 13:09:14;;;;;;;2.65;2.42;;;;;;;;;;6264730;28;20113;-77
2022/04/20 13:12:16;;;;;;;3.15;2.08;;;;;;;;;;6260929;28;20049;-76
2022/04/20 13:15:18;;;;;;;2.45;2.20;;;;;;;;;;6246258;28;20037;-78
2022/04/20 13:18:20;;;;;;;2.33;2.03;;;;;;;;;;6247162;28;20126;-79
2022/04/20 13:21:23;;;;;;;2.65;2.10;;;;;;;;;;6265039;28;20133;-78
2022/04/20 13:27:54;;;;;;;2.75;2.13;;;;;;;;;;6267932;28;20004;-76
2022/04/20 13:30:56;;;;;;;3.83;2.30;;;;;;;;;;6266625;28;20515;-77
2022/04/20 13:33:57;;;;;;;3.57;2.97;;;;;;;;;;6269244;28;20044;-75
2022/04/20 13:36:59;;;;;;;2.83;2.53;;;;;;;;;;6266390;28;20151;-74
2022/04/20 13:40:00;;;;;;;3.97;2.20;;;;;;;;;;6262128;28;20059;-77
2022/04/20 13:43:03;;;;;;;2.40;2.10;;;;;;;;;;6264449;28;20108;-76
2022/04/20 13:46:04;;;;;;;2.13;1.90;;;;;;;;;;6266487;28;20068;-74
2022/04/20 13:49:06;;;;;;;5.00;2.47;;;;;;;;;;6263979;28;20033;-76
2022/04/20 13:52:08;;;;;;;2.67;2.30;;;;;;;;;;6261972;28;20132;-76
2022/04/20 13:55:09;;;;;;;4.60;2.20;;;;;;;;;;6265525;28;20072;-77
2022/04/20 13:58:11;;;;;;;2.40;2.20;;;;;;;;;;6270623;28;20041;-77
2022/04/20 14:01:13;;;;;;;2.28;1.88;;;;;;;;;;6272519;28;20525;-78
2022/04/20 14:04:14;;;;;;;3.77;2.23;;;;;;;;;;6269515;28;20572;-77
2022/04/20 14:07:18;;;;;;;2.40;1.90;;;;;;;;;;6284132;28;20091;-79
2022/04/20 14:10:19;;;;;;;2.45;2.03;;;;;;;;;;6293290;28;20060;-79
2022/04/20 14:13:21;;;;;;;3.80;2.10;;;;;;;;;;6293729;28;20292;-80
2022/04/20 14:16:24;;;;;;;2.30;2.10;;;;;;;;;;6294192;28;20040;-78
2022/04/20 14:19:25;;;;;;;;;;;;;;;;;;6277974;28;20048;-81
2022/04/20 14:22:34;;;;;;;5.40;2.25;;;;;;;;;;6267866;28;19925;-78
2022/04/20 14:32:19;;;;;;;2.45;1.83;;;;;;;;;;6253607;28;20106;-80
2022/04/20 14:35:21;;;;;;;2.38;1.90;;;;;;;;;;6240426;28;20240;-80
2022/04/20 14:38:24;;;;;;;5.07;2.00;;;;;;;;;;6241509;28;20147;-80
2022/04/20 14:41:25;;;;;;;2.97;1.75;;;;;;;;;;6274052;28;20083;-80
2022/04/20 14:44:27;;;;;;;2.40;2.15;;;;;;;;;;6288207;28;20098;-79
2022/04/20 14:47:29;;;;;;;2.80;2.13;;;;;;;;;;6286113;28;20139;-80
2022/04/20 14:50:31;;;;;;;3.75;2.00;;;;;;;;;;6287950;28;20044;-78
2022/04/20 14:53:32;;;;;;;2.30;2.10;;;;;;;;;;6289717;28;20048;-80
2022/04/20 14:56:34;;;;;;;3.58;1.85;;;;;;;;;;6271624;28;20207;-79
2022/04/20 14:59:37;;;;;;;2.58;1.85;;;;;;;;;;6238674;28;20560;-79
2022/04/20 15:02:39;;;;;;;2.72;2.00;;;;;;;;;;6258482;28;20052;-78
2022/04/20 15:05:41;;;;;;;2.63;1.80;;;;;;;;;;6264132;28;20045;-79
2022/04/20 15:08:44;;;;;;;4.13;1.65;;;;;;;;;;6259336;28;20044;-79
2022/04/20 15:11:46;;;;;;;2.90;2.00;;;;;;;;;;6267113;28;20053;-78
2022/04/20 15:14:48;;;;;;;4.30;2.30;;;;;;;;;;6277306;28;20489;-79
2022/04/20 15:17:49;;;;;;;2.28;1.77;;;;;;;;;;6286658;28;20113;-80
2022/04/20 15:20:51;;;;;;;2.45;1.73;;;;;;;;;;6282545;28;20059;-79
2022/04/20 15:24:13;;;;;;;1.42;1.33;;;;;;;;;;6284267;28;20602;-78
2022/04/20 15:27:15;;;;;;;2.30;1.88;;;;;;;;;;6261489;28;20852;-77
2022/04/20 15:30:17;;;;;;;4.40;2.05;;;;;;;;;;6257511;28;20057;-78
2022/04/20 15:33:18;;;;;;;5.32;3.53;;;;;;;;;;6258978;28;20049;-78
2022/04/20 15:36:20;;;;;;;3.45;1.98;;;;;;;;;;6258710;28;20040;-78
2022/04/20 15:39:22;;;;;;;3.55;2.00;;;;;;;;;;6259597;28;20095;-79
2022/04/20 15:42:45;;;;;;;2.40;1.90;;;;;;;;;;6304907;27;22275;-79
2022/04/20 15:45:47;;;;;;;3.10;1.90;;;;;;;;;;6279394;28;20048;-79
2022/04/20 15:48:50;;;;;;;2.45;1.80;;;;;;;;;;6282405;28;20516;-79
2022/04/20 15:51:52;;;;;;;2.53;1.75;;;;;;;;;;6281788;28;20112;-80
2022/04/20 16:01:35;;;;;;;4.13;2.03;;;;;;;;;;6258554;28;20223;-78
2022/04/20 16:04:37;;;;;;;2.60;1.88;;;;;;;;;;6255307;28;20132;-77
2022/04/20 16:07:38;;;;;;;3.60;1.80;;;;;;;;;;6259292;28;20044;-78
2022/04/20 16:10:42;;;;;;;1.92;1.52;;;;;;;;;;6275995;28;20079;-80
2022/04/20 16:13:44;;;;;;;3.08;1.67;;;;;;;;;;6283096;28;20138;-79
2022/04/20 16:16:46;;;;;;;2.45;1.70;;;;;;;;;;6254534;28;20495;-79
2022/04/20 16:19:48;;;;;;;2.17;1.70;;;;;;;;;;6258383;28;20430;-79
2022/04/20 16:22:51;;;;;;;1.85;1.48;;;;;;;;;;6257962;28;20122;-78
2022/04/20 16:25:52;;;;;;;2.42;1.73;;;;;;;;;;6257240;28;20079;-77
2022/04/20 16:28:54;;;;;;;4.07;1.75;;;;;;;;;;6259139;28;20128;-78
2022/04/20 16:31:56;;;;;;;3.38;1.75;;;;;;;;;;6256369;28;20115;-80
2022/04/20 16:35:01;;;;;;;2.55;1.80;;;;;;;;;;6274131;28;20137;-79
2022/04/20 16:38:08;;;;;;;3.35;1.73;;;;;;;;;;6281820;28;20045;-81
2022/04/20 16:41:10;;;;;;;2.25;1.63;;;;;;;;;;6279679;28;20693;-81
2022/04/20 16:44:12;;;;;;;3.58;2.00;;;;;;;;;;6282803;28;20082;-80
2022/04/20 16:47:14;;;;;;;3.35;2.22;;;;;;;;;;6280942;28;20516;-80
2022/04/20 16:50:18;;;;;;;2.57;1.80;;;;;;;;;;6280095;28;20049;-80
2022/04/20 16:53:19;;;;;;;3.53;2.08;;;;;;;;;;6281951;28;20074;-80
2022/04/20 16:56:21;;;;;;;2.58;1.75;;;;;;;;;;6283548;28;20712;-79
2022/04/20 16:59:22;;;;;;;3.80;1.80;;;;;;;;;;6286210;28;20131;-81
2022/04/20 17:02:25;;;;;;;3.20;2.00;;;;;;;;;;6266623;28;20120;-78
2022/04/20 17:05:27;;;;;;;2.72;1.92;;;;;;;;;;6266546;28;20148;-80
2022/04/20 17:08:34;;;;;;;3.55;1.70;;;;;;;;;;6267349;28;20136;-79
2022/04/20 17:11:36;;;;;;;4.07;3.35;;;;;;;;;;6281233;28;20618;-78
2022/04/20 17:14:37;;;;;;;4.43;2.33;;;;;;;;;;6287479;28;20052;-78
2022/04/20 17:17:39;;;;;;;3.03;2.38;;;;;;;;;;6283113;28;20497;-78
2022/04/20 17:27:21;;;;;;;3.35;2.30;;;;;;;;;;6250776;28;20048;-78
2022/04/20 17:30:22;;;;;;;2.95;1.92;;;;;;;;;;6230625;28;20056;-79
2022/04/20 17:33:25;;;;;;;5.45;3.30;;;;;;;;;;6264305;28;20561;-79
2022/04/20 17:36:48;;;;;;;3.40;2.50;;;;;;;;;;6261730;28;20048;-78
2022/04/20 17:39:54;;;;;;;2.47;2.28;;;;;;;;;;6258994;28;20049;-79
2022/04/20 17:42:55;;;;;;;3.75;2.20;;;;;;;;;;6264008;28;20094;-80
2022/04/20 17:45:57;;;;;;;2.63;2.20;;;;;;;;;;6265071;28;20111;-78
2022/04/20 17:48:59;;;;;;;2.38;2.10;;;;;;;;;;6266285;28;20045;-79
2022/04/20 17:52:01;;;;;;;2.88;2.35;;;;;;;;;;6265979;28;20087;-79
2022/04/20 17:55:03;;;;;;;5.55;2.30;;;;;;;;;;6265444;28;20164;-79
2022/04/20 17:58:04;;;;;;;2.65;2.22;;;;;;;;;;6274520;27;20136;-79
2022/04/20 18:01:06;;;;;;;5.35;2.35;;;;;;;;;;6261803;28;20486;-80
2022/04/20 18:04:08;;;;;;;3.10;1.85;;;;;;;;;;6279962;28;20724;-79
2022/04/20 18:07:10;;;;;;;3.13;2.30;;;;;;;;;;6264865;28;20060;-79
2022/04/20 18:10:12;;;;;;;3.10;2.10;;;;;;;;;;6262556;28;20180;-79
2022/04/20 18:13:14;;;;;;;2.53;2.05;;;;;;;;;;6270595;28;20300;-79
2022/04/20 18:16:16;;;;;;;2.80;2.05;;;;;;;;;;6239635;28;20053;-79
2022/04/20 18:19:18;;;;;;;2.88;1.90;;;;;;;;;;6261746;28;20470;-80
2022/04/20 18:22:21;;;;;;;3.40;2.03;;;;;;;;;;6270490;28;20530;-79
2022/04/20 18:25:23;;;;;;;3.08;1.92;;;;;;;;;;6267569;28;20164;-79
2022/04/20 18:28:24;;;;;;;3.60;1.85;;;;;;;;;;6260121;28;20047;-79
2022/04/20 18:31:26;;;;;;;2.97;1.90;;;;;;;;;;6257835;28;20064;-79
2022/04/20 18:34:30;;;;;;;3.97;1.90;;;;;;;;;;6259416;28;20870;-80
2022/04/20 18:37:32;;;;;;;1.88;1.65;;;;;;;;;;6259785;28;20149;-79
2022/04/20 18:40:35;;;;;;;4.13;2.00;;;;;;;;;;6260612;28;20059;-80
2022/04/20 18:43:36;;;;;;;3.45;2.00;;;;;;;;;;6291204;28;20048;-79
2022/04/20 18:46:38;;;;;;;10.90;7.50;;;;;;;;;;6280752;28;20052;-79
2022/04/20 18:49:48;;;;;;;17.70;10.70;;;;;;;;;;6284769;28;20154;-79
2022/04/20 18:59:31;;;;;;;10.75;6.78;;;;;;;;;;6259484;28;20497;-79
2022/04/20 19:02:36;;;;;;;9.43;5.70;;;;;;;;;;6277343;28;20509;-79
2022/04/20 19:05:38;;;;;;;8.95;5.65;;;;;;;;;;6257510;28;20053;-78
2022/04/20 19:08:39;;;;;;;8.30;4.00;;;;;;;;;;6283427;28;20044;-79
2022/04/20 19:11:41;;;;;;;4.90;2.78;;;;;;;;;;6292589;28;20473;-79
2022/04/20 19:14:43;;;;;;;3.45;2.10;;;;;;;;;;6282815;28;20132;-79
2022/04/20 19:17:46;;;;;;;3.72;2.10;;;;;;;;;;6236634;28;20057;-79
2022/04/20 19:20:47;;;;;;;4.30;2.25;;;;;;;;;;6233881;28;20115;-79
2022/04/20 19:23:50;;;;;;;3.92;2.05;;;;;;;;;;6234306;28;20084;-78
2022/04/20 19:26:52;;;;;;;3.40;2.10;;;;;;;;;;6249939;28;20606;-79
2022/04/20 19:29:53;;;;;;;4.35;2.10;;;;;;;;;;6254621;28;20141;-78
2022/04/20 19:32:55;;;;;;;2.72;2.03;;;;;;;;;;6231502;28;20199;-79
2022/04/20 19:35:57;;;;;;;3.17;2.08;;;;;;;;;;6230891;28;20161;-79
2022/04/20 19:38:59;;;;;;;3.90;2.20;;;;;;;;;;6230042;28;20620;-79
2022/04/20 19:42:01;;;;;;;4.22;2.10;;;;;;;;;;6283668;28;20043;-77